sensor_id;sensor_type;location;lat;lon;timestamp;P1;durP1;ratioP1;P2;durP2;ratioP2
2039;SDS011;1025;42.686;23.350;2023-06-22T00:00:40;11.90;;;11.00;;
2039;SDS011;1025;42.686;23.350;2023-06-22T00:03:07;14.07;;;11.17;;
2039;SDS011;1025;42.686;23.350;2023-06-22T00:05:34;12.17;;;10.93;;
2039;SDS011;1025;42.686;23.350;2023-06-22T00:08:02;13.03;;;12.03;;
2039;SDS011;1025;42.686;23.350;2023-06-22T00:10:29;13.27;;;12.17;;
2039;SDS011;1025;42.686;23.350;2023-06-22T00:12:56;12.93;;;11.73;;
2039;SDS011;1025;42.686;23.350;2023-06-22T00:15:22;13.33;;;11.97;;
2039;SDS011;1025;42.686;23.350;2023-06-22T00:17:50;12.27;;;11.37;;
2039;SDS011;1025;42.686;23.350;2023-06-22T00:20:17;11.23;;;10.30;;
2039;SDS011;1025;42.686;23.350;2023-06-22T00:22:44;12.00;;;11.10;;
2039;SDS011;1025;42.686;23.350;2023-06-22T00:25:11;13.20;;;11.97;;
2039;SDS011;1025;42.686;23.350;2023-06-22T00:27:37;12.27;;;11.27;;
2039;SDS011;1025;42.686;23.350;2023-06-22T00:30:04;12.70;;;11.50;;
2039;SDS011;1025;42.686;23.350;2023-06-22T00:32:31;11.53;;;10.43;;
2039;SDS011;1025;42.686;23.350;2023-06-22T00:34:59;12.80;;;11.70;;
2039;SDS011;1025;42.686;23.350;2023-06-22T00:37:26;11.33;;;10.53;;
2039;SDS011;1025;42.686;23.350;2023-06-22T00:39:54;13.20;;;11.97;;
2039;SDS011;1025;42.686;23.350;2023-06-22T00:42:21;12.33;;;11.23;;
2039;SDS011;1025;42.686;23.350;2023-06-22T00:44:47;11.17;;;10.27;;
2039;SDS011;1025;42.686;23.350;2023-06-22T00:47:14;12.20;;;11.20;;
2039;SDS011;1025;42.686;23.350;2023-06-22T00:49:42;12.80;;;11.63;;
2039;SDS011;1025;42.686;23.350;2023-06-22T00:52:10;11.90;;;10.90;;
2039;SDS011;1025;42.686;23.350;2023-06-22T00:54:39;12.97;;;11.80;;
2039;SDS011;1025;42.686;23.350;2023-06-22T00:57:10;12.30;;;11.33;;
2039;SDS011;1025;42.686;23.350;2023-06-22T00:59:37;12.03;;;11.07;;
2039;SDS011;1025;42.686;23.350;2023-06-22T01:02:04;12.87;;;11.77;;
2039;SDS011;1025;42.686;23.350;2023-06-22T01:04:34;13.40;;;12.10;;
2039;SDS011;1025;42.686;23.350;2023-06-22T01:07:02;14.10;;;12.57;;
2039;SDS011;1025;42.686;23.350;2023-06-22T01:09:34;13.03;;;11.93;;
2039;SDS011;1025;42.686;23.350;2023-06-22T01:12:03;12.70;;;11.50;;
2039;SDS011;1025;42.686;23.350;2023-06-22T01:14:32;12.97;;;11.67;;
2039;SDS011;1025;42.686;23.350;2023-06-22T01:17:03;13.87;;;12.67;;
2039;SDS011;1025;42.686;23.350;2023-06-22T01:19:35;14.67;;;13.13;;
2039;SDS011;1025;42.686;23.350;2023-06-22T01:22:02;13.50;;;12.20;;
2039;SDS011;1025;42.686;23.350;2023-06-22T01:24:31;14.00;;;13.00;;
2039;SDS011;1025;42.686;23.350;2023-06-22T01:27:08;12.60;;;11.57;;
2039;SDS011;1025;42.686;23.350;2023-06-22T01:29:40;13.87;;;11.70;;
2039;SDS011;1025;42.686;23.350;2023-06-22T01:32:08;12.87;;;11.83;;
2039;SDS011;1025;42.686;23.350;2023-06-22T01:34:36;13.80;;;12.50;;
2039;SDS011;1025;42.686;23.350;2023-06-22T01:37:05;13.93;;;12.73;;
2039;SDS011;1025;42.686;23.350;2023-06-22T01:39:31;15.00;;;13.80;;
2039;SDS011;1025;42.686;23.350;2023-06-22T01:41:58;16.73;;;15.33;;
2039;SDS011;1025;42.686;23.350;2023-06-22T01:44:25;16.20;;;14.70;;
2039;SDS011;1025;42.686;23.350;2023-06-22T01:46:54;19.93;;;17.23;;
2039;SDS011;1025;42.686;23.350;2023-06-22T01:49:21;14.53;;;13.10;;
2039;SDS011;1025;42.686;23.350;2023-06-22T01:51:47;15.30;;;13.70;;
2039;SDS011;1025;42.686;23.350;2023-06-22T01:54:14;14.10;;;12.80;;
2039;SDS011;1025;42.686;23.350;2023-06-22T01:56:40;12.80;;;11.80;;
2039;SDS011;1025;42.686;23.350;2023-06-22T01:59:09;15.07;;;13.70;;
2039;SDS011;1025;42.686;23.350;2023-06-22T02:01:41;14.57;;;13.37;;
2039;SDS011;1025;42.686;23.350;2023-06-22T02:04:11;15.40;;;13.90;;
2039;SDS011;1025;42.686;23.350;2023-06-22T02:06:39;15.30;;;14.07;;
2039;SDS011;1025;42.686;23.350;2023-06-22T02:09:09;15.27;;;13.00;;
2039;SDS011;1025;42.686;23.350;2023-06-22T02:11:38;15.07;;;13.77;;
2039;SDS011;1025;42.686;23.350;2023-06-22T02:14:06;13.97;;;12.90;;
2039;SDS011;1025;42.686;23.350;2023-06-22T02:16:33;15.83;;;14.40;;
2039;SDS011;1025;42.686;23.350;2023-06-22T02:19:01;14.33;;;13.00;;
2039;SDS011;1025;42.686;23.350;2023-06-22T02:21:29;16.43;;;15.03;;
2039;SDS011;1025;42.686;23.350;2023-06-22T02:23:56;15.50;;;14.20;;
2039;SDS011;1025;42.686;23.350;2023-06-22T02:26:23;15.87;;;14.53;;
2039;SDS011;1025;42.686;23.350;2023-06-22T02:28:50;17.43;;;14.00;;
2039;SDS011;1025;42.686;23.350;2023-06-22T02:31:16;15.73;;;14.23;;
2039;SDS011;1025;42.686;23.350;2023-06-22T02:33:43;14.50;;;13.30;;
2039;SDS011;1025;42.686;23.350;2023-06-22T02:36:10;15.43;;;13.93;;
2039;SDS011;1025;42.686;23.350;2023-06-22T02:38:39;14.97;;;13.47;;
2039;SDS011;1025;42.686;23.350;2023-06-22T02:41:13;16.50;;;14.83;;
2039;SDS011;1025;42.686;23.350;2023-06-22T02:43:43;15.43;;;13.10;;
2039;SDS011;1025;42.686;23.350;2023-06-22T02:46:10;15.00;;;13.60;;
2039;SDS011;1025;42.686;23.350;2023-06-22T02:48:36;16.70;;;15.00;;
2039;SDS011;1025;42.686;23.350;2023-06-22T02:51:03;14.57;;;13.17;;
2039;SDS011;1025;42.686;23.350;2023-06-22T02:53:31;15.57;;;13.97;;
2039;SDS011;1025;42.686;23.350;2023-06-22T02:56:00;18.40;;;14.60;;
2039;SDS011;1025;42.686;23.350;2023-06-22T02:58:28;16.43;;;13.60;;
2039;SDS011;1025;42.686;23.350;2023-06-22T03:00:55;12.97;;;11.97;;
2039;SDS011;1025;42.686;23.350;2023-06-22T03:03:21;24.20;;;13.50;;
2039;SDS011;1025;42.686;23.350;2023-06-22T03:05:48;14.57;;;13.20;;
2039;SDS011;1025;42.686;23.350;2023-06-22T03:08:14;13.97;;;12.30;;
2039;SDS011;1025;42.686;23.350;2023-06-22T03:10:41;13.10;;;11.87;;
2039;SDS011;1025;42.686;23.350;2023-06-22T03:13:09;17.53;;;13.03;;
2039;SDS011;1025;42.686;23.350;2023-06-22T03:15:35;15.10;;;13.70;;
2039;SDS011;1025;42.686;23.350;2023-06-22T03:18:02;13.70;;;12.60;;
2039;SDS011;1025;42.686;23.350;2023-06-22T03:20:28;14.20;;;12.17;;
2039;SDS011;1025;42.686;23.350;2023-06-22T03:22:59;23.60;;;12.10;;
2039;SDS011;1025;42.686;23.350;2023-06-22T03:25:26;17.10;;;13.00;;
2039;SDS011;1025;42.686;23.350;2023-06-22T03:27:52;14.83;;;13.33;;
2039;SDS011;1025;42.686;23.350;2023-06-22T03:30:21;15.83;;;12.23;;
2039;SDS011;1025;42.686;23.350;2023-06-22T03:32:47;14.13;;;12.70;;
2039;SDS011;1025;42.686;23.350;2023-06-22T03:35:14;25.30;;;13.80;;
2039;SDS011;1025;42.686;23.350;2023-06-22T03:37:41;15.73;;;11.03;;
2039;SDS011;1025;42.686;23.350;2023-06-22T03:40:08;13.73;;;11.80;;
2039;SDS011;1025;42.686;23.350;2023-06-22T03:42:34;20.77;;;11.93;;
2039;SDS011;1025;42.686;23.350;2023-06-22T03:45:01;15.03;;;11.00;;
2039;SDS011;1025;42.686;23.350;2023-06-22T03:47:30;18.77;;;10.60;;
2039;SDS011;1025;42.686;23.350;2023-06-22T03:49:56;15.93;;;12.23;;
2039;SDS011;1025;42.686;23.350;2023-06-22T03:52:23;12.27;;;10.97;;
2039;SDS011;1025;42.686;23.350;2023-06-22T03:54:50;14.47;;;11.33;;
2039;SDS011;1025;42.686;23.350;2023-06-22T03:57:17;11.90;;;9.87;;
2039;SDS011;1025;42.686;23.350;2023-06-22T03:59:43;12.30;;;10.97;;
2039;SDS011;1025;42.686;23.350;2023-06-22T04:02:10;14.80;;;9.77;;
2039;SDS011;1025;42.686;23.350;2023-06-22T04:04:38;15.83;;;12.90;;
2039;SDS011;1025;42.686;23.350;2023-06-22T04:07:05;12.33;;;11.13;;
2039;SDS011;1025;42.686;23.350;2023-06-22T04:09:31;15.27;;;11.33;;
2039;SDS011;1025;42.686;23.350;2023-06-22T04:11:58;14.33;;;11.93;;
2039;SDS011;1025;42.686;23.350;2023-06-22T04:14:24;12.47;;;11.30;;
2039;SDS011;1025;42.686;23.350;2023-06-22T04:16:51;11.50;;;10.50;;
2039;SDS011;1025;42.686;23.350;2023-06-22T04:19:17;14.47;;;10.20;;
2039;SDS011;1025;42.686;23.350;2023-06-22T04:21:45;12.50;;;11.20;;
2039;SDS011;1025;42.686;23.350;2023-06-22T04:24:13;11.30;;;9.50;;
2039;SDS011;1025;42.686;23.350;2023-06-22T04:26:41;12.57;;;9.97;;
2039;SDS011;1025;42.686;23.350;2023-06-22T04:29:10;14.27;;;12.80;;
2039;SDS011;1025;42.686;23.350;2023-06-22T04:31:37;13.53;;;10.93;;
2039;SDS011;1025;42.686;23.350;2023-06-22T04:34:04;12.83;;;11.27;;
2039;SDS011;1025;42.686;23.350;2023-06-22T04:36:33;14.10;;;12.03;;
2039;SDS011;1025;42.686;23.350;2023-06-22T04:39:05;11.30;;;10.30;;
2039;SDS011;1025;42.686;23.350;2023-06-22T04:41:32;13.40;;;12.17;;
2039;SDS011;1025;42.686;23.350;2023-06-22T04:44:07;15.83;;;14.20;;
2039;SDS011;1025;42.686;23.350;2023-06-22T04:46:33;13.70;;;12.30;;
2039;SDS011;1025;42.686;23.350;2023-06-22T04:49:03;12.63;;;11.07;;
2039;SDS011;1025;42.686;23.350;2023-06-22T04:51:31;13.40;;;11.83;;
2039;SDS011;1025;42.686;23.350;2023-06-22T04:53:57;17.60;;;12.40;;
2039;SDS011;1025;42.686;23.350;2023-06-22T04:56:27;27.73;;;17.30;;
2039;SDS011;1025;42.686;23.350;2023-06-22T04:58:54;15.50;;;11.90;;
2039;SDS011;1025;42.686;23.350;2023-06-22T05:01:22;13.17;;;11.97;;
2039;SDS011;1025;42.686;23.350;2023-06-22T05:03:48;13.33;;;12.03;;
2039;SDS011;1025;42.686;23.350;2023-06-22T05:06:15;13.23;;;11.90;;
2039;SDS011;1025;42.686;23.350;2023-06-22T05:08:43;12.43;;;11.13;;
2039;SDS011;1025;42.686;23.350;2023-06-22T05:11:09;12.23;;;11.07;;
2039;SDS011;1025;42.686;23.350;2023-06-22T05:13:37;14.67;;;13.20;;
2039;SDS011;1025;42.686;23.350;2023-06-22T05:16:04;12.87;;;11.87;;
2039;SDS011;1025;42.686;23.350;2023-06-22T05:18:31;13.40;;;12.20;;
2039;SDS011;1025;42.686;23.350;2023-06-22T05:20:58;11.80;;;10.60;;
2039;SDS011;1025;42.686;23.350;2023-06-22T05:23:24;14.63;;;11.77;;
2039;SDS011;1025;42.686;23.350;2023-06-22T05:25:51;11.03;;;10.13;;
2039;SDS011;1025;42.686;23.350;2023-06-22T05:28:17;14.10;;;10.57;;
2039;SDS011;1025;42.686;23.350;2023-06-22T05:30:49;22.70;;;20.57;;
2039;SDS011;1025;42.686;23.350;2023-06-22T05:33:16;14.80;;;11.93;;
2039;SDS011;1025;42.686;23.350;2023-06-22T05:35:42;16.10;;;11.67;;
2039;SDS011;1025;42.686;23.350;2023-06-22T05:38:09;12.93;;;11.63;;
2039;SDS011;1025;42.686;23.350;2023-06-22T05:40:35;16.30;;;12.13;;
2039;SDS011;1025;42.686;23.350;2023-06-22T05:43:02;12.10;;;11.03;;
2039;SDS011;1025;42.686;23.350;2023-06-22T05:45:28;24.43;;;11.93;;
2039;SDS011;1025;42.686;23.350;2023-06-22T05:47:56;12.13;;;11.03;;
2039;SDS011;1025;42.686;23.350;2023-06-22T05:50:22;13.13;;;11.90;;
2039;SDS011;1025;42.686;23.350;2023-06-22T05:52:49;12.20;;;11.20;;
2039;SDS011;1025;42.686;23.350;2023-06-22T05:55:15;19.17;;;12.70;;
2039;SDS011;1025;42.686;23.350;2023-06-22T05:57:43;13.63;;;12.33;;
2039;SDS011;1025;42.686;23.350;2023-06-22T06:00:10;15.43;;;11.20;;
2039;SDS011;1025;42.686;23.350;2023-06-22T06:02:38;13.07;;;11.60;;
2039;SDS011;1025;42.686;23.350;2023-06-22T06:05:10;13.90;;;12.70;;
2039;SDS011;1025;42.686;23.350;2023-06-22T06:07:36;12.70;;;11.37;;
2039;SDS011;1025;42.686;23.350;2023-06-22T06:10:04;12.40;;;11.33;;
2039;SDS011;1025;42.686;23.350;2023-06-22T06:12:31;13.97;;;12.70;;
2039;SDS011;1025;42.686;23.350;2023-06-22T06:14:57;14.57;;;13.13;;
2039;SDS011;1025;42.686;23.350;2023-06-22T06:17:24;13.20;;;11.97;;
2039;SDS011;1025;42.686;23.350;2023-06-22T06:19:50;14.53;;;13.13;;
2039;SDS011;1025;42.686;23.350;2023-06-22T06:22:19;12.77;;;11.77;;
2039;SDS011;1025;42.686;23.350;2023-06-22T06:24:46;12.80;;;11.60;;
2039;SDS011;1025;42.686;23.350;2023-06-22T06:27:12;15.90;;;14.37;;
2039;SDS011;1025;42.686;23.350;2023-06-22T06:29:39;12.00;;;10.83;;
2039;SDS011;1025;42.686;23.350;2023-06-22T06:32:06;16.73;;;13.90;;
2039;SDS011;1025;42.686;23.350;2023-06-22T06:34:33;13.23;;;11.93;;
2039;SDS011;1025;42.686;23.350;2023-06-22T06:36:59;16.10;;;13.07;;
2039;SDS011;1025;42.686;23.350;2023-06-22T06:39:27;12.40;;;11.30;;
2039;SDS011;1025;42.686;23.350;2023-06-22T06:41:54;13.93;;;12.57;;
2039;SDS011;1025;42.686;23.350;2023-06-22T06:44:20;12.57;;;11.27;;
2039;SDS011;1025;42.686;23.350;2023-06-22T06:46:47;16.53;;;11.53;;
2039;SDS011;1025;42.686;23.350;2023-06-22T06:49:13;11.97;;;10.87;;
2039;SDS011;1025;42.686;23.350;2023-06-22T06:51:40;13.27;;;12.07;;
2039;SDS011;1025;42.686;23.350;2023-06-22T06:54:06;12.67;;;11.67;;
2039;SDS011;1025;42.686;23.350;2023-06-22T06:56:34;12.40;;;11.33;;
2039;SDS011;1025;42.686;23.350;2023-06-22T06:59:01;17.13;;;13.73;;
2039;SDS011;1025;42.686;23.350;2023-06-22T07:01:27;16.77;;;11.90;;
2039;SDS011;1025;42.686;23.350;2023-06-22T07:03:58;11.93;;;11.00;;
2039;SDS011;1025;42.686;23.350;2023-06-22T07:06:25;13.87;;;10.90;;
2039;SDS011;1025;42.686;23.350;2023-06-22T07:08:54;17.40;;;11.53;;
2039;SDS011;1025;42.686;23.350;2023-06-22T07:11:21;12.10;;;10.90;;
2039;SDS011;1025;42.686;23.350;2023-06-22T07:13:49;15.40;;;11.43;;
2039;SDS011;1025;42.686;23.350;2023-06-22T07:16:15;12.50;;;11.20;;
2039;SDS011;1025;42.686;23.350;2023-06-22T07:18:42;11.83;;;10.63;;
2039;SDS011;1025;42.686;23.350;2023-06-22T07:21:08;13.73;;;10.50;;
2039;SDS011;1025;42.686;23.350;2023-06-22T07:23:35;12.63;;;11.50;;
2039;SDS011;1025;42.686;23.350;2023-06-22T07:26:01;11.50;;;10.50;;
2039;SDS011;1025;42.686;23.350;2023-06-22T07:28:28;12.13;;;11.00;;
2039;SDS011;1025;42.686;23.350;2023-06-22T07:30:57;11.00;;;9.90;;
2039;SDS011;1025;42.686;23.350;2023-06-22T07:33:24;12.10;;;10.90;;
2039;SDS011;1025;42.686;23.350;2023-06-22T07:35:50;11.17;;;9.90;;
2039;SDS011;1025;42.686;23.350;2023-06-22T07:38:17;11.67;;;10.77;;
2039;SDS011;1025;42.686;23.350;2023-06-22T07:40:44;12.70;;;11.37;;
2039;SDS011;1025;42.686;23.350;2023-06-22T07:43:10;13.13;;;12.03;;
2039;SDS011;1025;42.686;23.350;2023-06-22T07:45:37;13.40;;;10.37;;
2039;SDS011;1025;42.686;23.350;2023-06-22T07:48:07;17.17;;;13.00;;
2039;SDS011;1025;42.686;23.350;2023-06-22T07:50:33;18.77;;;10.77;;
2039;SDS011;1025;42.686;23.350;2023-06-22T07:53:00;10.70;;;9.90;;
2039;SDS011;1025;42.686;23.350;2023-06-22T07:55:26;12.30;;;11.10;;
2039;SDS011;1025;42.686;23.350;2023-06-22T07:57:53;12.30;;;9.50;;
2039;SDS011;1025;42.686;23.350;2023-06-22T08:00:22;10.23;;;9.27;;
2039;SDS011;1025;42.686;23.350;2023-06-22T08:02:59;11.20;;;9.60;;
2039;SDS011;1025;42.686;23.350;2023-06-22T08:05:32;14.67;;;13.00;;
2039;SDS011;1025;42.686;23.350;2023-06-22T08:08:00;13.00;;;11.67;;
2039;SDS011;1025;42.686;23.350;2023-06-22T08:10:27;12.07;;;10.70;;
2039;SDS011;1025;42.686;23.350;2023-06-22T08:12:55;15.10;;;11.10;;
2039;SDS011;1025;42.686;23.350;2023-06-22T08:15:25;15.93;;;10.80;;
2039;SDS011;1025;42.686;23.350;2023-06-22T08:17:54;20.67;;;12.80;;
2039;SDS011;1025;42.686;23.350;2023-06-22T08:20:34;15.60;;;10.40;;
2039;SDS011;1025;42.686;23.350;2023-06-22T08:23:02;18.60;;;12.50;;
2039;SDS011;1025;42.686;23.350;2023-06-22T08:25:31;13.63;;;10.73;;
2039;SDS011;1025;42.686;23.350;2023-06-22T08:27:58;11.80;;;10.57;;
2039;SDS011;1025;42.686;23.350;2023-06-22T08:30:24;15.70;;;11.37;;
2039;SDS011;1025;42.686;23.350;2023-06-22T08:32:51;14.93;;;11.70;;
2039;SDS011;1025;42.686;23.350;2023-06-22T08:35:17;15.33;;;11.13;;
2039;SDS011;1025;42.686;23.350;2023-06-22T08:37:45;13.73;;;12.33;;
2039;SDS011;1025;42.686;23.350;2023-06-22T08:40:20;13.53;;;10.77;;
2039;SDS011;1025;42.686;23.350;2023-06-22T08:42:47;12.70;;;10.47;;
2039;SDS011;1025;42.686;23.350;2023-06-22T08:45:14;17.90;;;12.10;;
2039;SDS011;1025;42.686;23.350;2023-06-22T08:47:41;12.07;;;10.63;;
2039;SDS011;1025;42.686;23.350;2023-06-22T08:50:08;11.53;;;10.33;;
2039;SDS011;1025;42.686;23.350;2023-06-22T08:52:35;15.70;;;10.93;;
2039;SDS011;1025;42.686;23.350;2023-06-22T08:55:04;10.87;;;9.80;;
2039;SDS011;1025;42.686;23.350;2023-06-22T08:57:30;12.17;;;9.57;;
2039;SDS011;1025;42.686;23.350;2023-06-22T08:59:57;12.80;;;11.20;;
2039;SDS011;1025;42.686;23.350;2023-06-22T09:02:24;14.40;;;11.17;;
2039;SDS011;1025;42.686;23.350;2023-06-22T09:04:50;13.37;;;12.07;;
2039;SDS011;1025;42.686;23.350;2023-06-22T09:07:20;9.57;;;8.60;;
2039;SDS011;1025;42.686;23.350;2023-06-22T09:09:48;9.37;;;8.63;;
2039;SDS011;1025;42.686;23.350;2023-06-22T09:12:17;13.77;;;10.50;;
2039;SDS011;1025;42.686;23.350;2023-06-22T09:14:45;9.60;;;8.80;;
2039;SDS011;1025;42.686;23.350;2023-06-22T09:17:12;10.00;;;9.20;;
2039;SDS011;1025;42.686;23.350;2023-06-22T09:19:38;14.83;;;10.43;;
2039;SDS011;1025;42.686;23.350;2023-06-22T09:22:05;9.03;;;8.43;;
2039;SDS011;1025;42.686;23.350;2023-06-22T09:24:32;9.97;;;8.97;;
2039;SDS011;1025;42.686;23.350;2023-06-22T09:26:58;8.23;;;7.63;;
2039;SDS011;1025;42.686;23.350;2023-06-22T09:29:26;10.23;;;9.57;;
2039;SDS011;1025;42.686;23.350;2023-06-22T09:31:53;10.50;;;9.47;;
2039;SDS011;1025;42.686;23.350;2023-06-22T09:34:20;9.80;;;9.00;;
2039;SDS011;1025;42.686;23.350;2023-06-22T09:36:47;9.57;;;8.83;;
2039;SDS011;1025;42.686;23.350;2023-06-22T09:39:14;10.53;;;9.67;;
2039;SDS011;1025;42.686;23.350;2023-06-22T09:41:40;14.50;;;9.50;;
2039;SDS011;1025;42.686;23.350;2023-06-22T09:44:07;9.83;;;8.93;;
2039;SDS011;1025;42.686;23.350;2023-06-22T09:46:35;10.07;;;9.33;;
2039;SDS011;1025;42.686;23.350;2023-06-22T09:49:01;9.63;;;8.77;;
2039;SDS011;1025;42.686;23.350;2023-06-22T09:51:27;10.80;;;10.00;;
2039;SDS011;1025;42.686;23.350;2023-06-22T09:53:54;11.33;;;9.97;;
2039;SDS011;1025;42.686;23.350;2023-06-22T09:56:20;11.70;;;9.80;;
2039;SDS011;1025;42.686;23.350;2023-06-22T09:58:47;9.53;;;8.80;;
2039;SDS011;1025;42.686;23.350;2023-06-22T10:01:17;10.67;;;9.83;;
2039;SDS011;1025;42.686;23.350;2023-06-22T10:03:47;9.67;;;8.93;;
2039;SDS011;1025;42.686;23.350;2023-06-22T10:06:14;9.23;;;8.53;;
2039;SDS011;1025;42.686;23.350;2023-06-22T10:08:41;10.10;;;9.20;;
2039;SDS011;1025;42.686;23.350;2023-06-22T10:11:07;9.37;;;8.57;;
2039;SDS011;1025;42.686;23.350;2023-06-22T10:13:34;9.80;;;9.00;;
2039;SDS011;1025;42.686;23.350;2023-06-22T10:16:00;10.70;;;9.70;;
2039;SDS011;1025;42.686;23.350;2023-06-22T10:18:27;9.30;;;8.60;;
2039;SDS011;1025;42.686;23.350;2023-06-22T10:20:55;9.43;;;8.50;;
2039;SDS011;1025;42.686;23.350;2023-06-22T10:23:21;7.70;;;7.13;;
2039;SDS011;1025;42.686;23.350;2023-06-22T10:25:48;7.63;;;7.03;;
2039;SDS011;1025;42.686;23.350;2023-06-22T10:28:15;9.10;;;8.17;;
2039;SDS011;1025;42.686;23.350;2023-06-22T10:30:42;9.97;;;8.40;;
2039;SDS011;1025;42.686;23.350;2023-06-22T10:33:08;9.00;;;8.30;;
2039;SDS011;1025;42.686;23.350;2023-06-22T10:35:35;12.40;;;8.50;;
2039;SDS011;1025;42.686;23.350;2023-06-22T10:38:04;8.50;;;7.60;;
2039;SDS011;1025;42.686;23.350;2023-06-22T10:40:30;13.63;;;12.53;;
2039;SDS011;1025;42.686;23.350;2023-06-22T10:42:57;10.33;;;9.33;;
2039;SDS011;1025;42.686;23.350;2023-06-22T10:45:23;9.10;;;8.40;;
2039;SDS011;1025;42.686;23.350;2023-06-22T10:47:50;9.20;;;8.50;;
2039;SDS011;1025;42.686;23.350;2023-06-22T10:50:17;8.43;;;7.23;;
2039;SDS011;1025;42.686;23.350;2023-06-22T10:52:45;8.33;;;7.77;;
2039;SDS011;1025;42.686;23.350;2023-06-22T10:55:13;9.07;;;8.30;;
2039;SDS011;1025;42.686;23.350;2023-06-22T10:57:39;7.20;;;6.60;;
2039;SDS011;1025;42.686;23.350;2023-06-22T11:00:08;7.47;;;6.70;;
2039;SDS011;1025;42.686;23.350;2023-06-22T11:02:36;7.50;;;6.90;;
2039;SDS011;1025;42.686;23.350;2023-06-22T11:05:03;7.70;;;7.10;;
2039;SDS011;1025;42.686;23.350;2023-06-22T11:07:29;8.87;;;8.27;;
2039;SDS011;1025;42.686;23.350;2023-06-22T11:09:56;8.87;;;8.10;;
2039;SDS011;1025;42.686;23.350;2023-06-22T11:12:24;9.87;;;8.03;;
2039;SDS011;1025;42.686;23.350;2023-06-22T11:14:50;8.60;;;8.00;;
2039;SDS011;1025;42.686;23.350;2023-06-22T11:17:17;7.97;;;7.37;;
2039;SDS011;1025;42.686;23.350;2023-06-22T11:19:44;8.30;;;7.50;;
2039;SDS011;1025;42.686;23.350;2023-06-22T11:22:10;7.23;;;6.73;;
2039;SDS011;1025;42.686;23.350;2023-06-22T11:24:37;10.73;;;8.77;;
2039;SDS011;1025;42.686;23.350;2023-06-22T11:27:03;9.27;;;8.67;;
2039;SDS011;1025;42.686;23.350;2023-06-22T11:29:31;8.63;;;8.03;;
2039;SDS011;1025;42.686;23.350;2023-06-22T11:31:58;8.67;;;7.77;;
2039;SDS011;1025;42.686;23.350;2023-06-22T11:34:24;9.50;;;7.87;;
2039;SDS011;1025;42.686;23.350;2023-06-22T11:36:51;8.40;;;7.63;;
2039;SDS011;1025;42.686;23.350;2023-06-22T11:39:18;8.80;;;8.20;;
2039;SDS011;1025;42.686;23.350;2023-06-22T11:41:45;7.57;;;7.10;;
2039;SDS011;1025;42.686;23.350;2023-06-22T11:44:11;7.73;;;7.13;;
2039;SDS011;1025;42.686;23.350;2023-06-22T11:46:39;7.37;;;6.87;;
2039;SDS011;1025;42.686;23.350;2023-06-22T11:49:06;8.73;;;8.13;;
2039;SDS011;1025;42.686;23.350;2023-06-22T11:51:32;7.50;;;6.77;;
2039;SDS011;1025;42.686;23.350;2023-06-22T11:53:59;8.40;;;7.57;;
2039;SDS011;1025;42.686;23.350;2023-06-22T11:56:25;9.83;;;8.40;;
2039;SDS011;1025;42.686;23.350;2023-06-22T11:58:53;8.80;;;8.20;;
2039;SDS011;1025;42.686;23.350;2023-06-22T12:01:19;9.40;;;7.80;;
2039;SDS011;1025;42.686;23.350;2023-06-22T12:03:47;8.27;;;7.73;;
2039;SDS011;1025;42.686;23.350;2023-06-22T12:06:14;8.30;;;7.57;;
2039;SDS011;1025;42.686;23.350;2023-06-22T12:08:40;11.37;;;10.40;;
2039;SDS011;1025;42.686;23.350;2023-06-22T12:11:07;9.20;;;8.50;;
2039;SDS011;1025;42.686;23.350;2023-06-22T12:13:33;10.83;;;9.00;;
2039;SDS011;1025;42.686;23.350;2023-06-22T12:16:00;7.80;;;7.30;;
2039;SDS011;1025;42.686;23.350;2023-06-22T12:18:26;8.80;;;7.90;;
2039;SDS011;1025;42.686;23.350;2023-06-22T12:20:54;9.83;;;7.13;;
2039;SDS011;1025;42.686;23.350;2023-06-22T12:23:21;9.17;;;7.23;;
2039;SDS011;1025;42.686;23.350;2023-06-22T12:25:47;7.87;;;7.10;;
2039;SDS011;1025;42.686;23.350;2023-06-22T12:28:14;8.30;;;7.53;;
2039;SDS011;1025;42.686;23.350;2023-06-22T12:30:40;20.70;;;10.20;;
2039;SDS011;1025;42.686;23.350;2023-06-22T12:33:07;16.80;;;10.13;;
2039;SDS011;1025;42.686;23.350;2023-06-22T12:35:34;11.10;;;7.40;;
2039;SDS011;1025;42.686;23.350;2023-06-22T12:38:02;16.90;;;9.30;;
2039;SDS011;1025;42.686;23.350;2023-06-22T12:40:31;9.83;;;8.70;;
2039;SDS011;1025;42.686;23.350;2023-06-22T12:42:58;9.33;;;8.43;;
2039;SDS011;1025;42.686;23.350;2023-06-22T12:45:25;11.07;;;9.77;;
2039;SDS011;1025;42.686;23.350;2023-06-22T12:47:54;9.40;;;8.50;;
2039;SDS011;1025;42.686;23.350;2023-06-22T12:50:20;11.33;;;10.33;;
2039;SDS011;1025;42.686;23.350;2023-06-22T12:52:47;14.30;;;9.57;;
2039;SDS011;1025;42.686;23.350;2023-06-22T12:55:15;12.17;;;9.93;;
2039;SDS011;1025;42.686;23.350;2023-06-22T12:57:41;10.73;;;9.33;;
2039;SDS011;1025;42.686;23.350;2023-06-22T13:00:08;7.50;;;6.90;;
2039;SDS011;1025;42.686;23.350;2023-06-22T13:02:36;9.47;;;8.20;;
2039;SDS011;1025;42.686;23.350;2023-06-22T13:05:03;13.00;;;8.70;;
2039;SDS011;1025;42.686;23.350;2023-06-22T13:07:31;8.63;;;7.73;;
2039;SDS011;1025;42.686;23.350;2023-06-22T13:09:57;9.57;;;8.67;;
2039;SDS011;1025;42.686;23.350;2023-06-22T13:12:25;10.53;;;9.43;;
2039;SDS011;1025;42.686;23.350;2023-06-22T13:14:52;10.17;;;9.20;;
2039;SDS011;1025;42.686;23.350;2023-06-22T13:17:18;16.63;;;12.03;;
2039;SDS011;1025;42.686;23.350;2023-06-22T13:19:46;12.10;;;9.53;;
2039;SDS011;1025;42.686;23.350;2023-06-22T13:22:25;11.57;;;9.70;;
2039;SDS011;1025;42.686;23.350;2023-06-22T13:24:52;27.83;;;13.60;;
2039;SDS011;1025;42.686;23.350;2023-06-22T13:27:18;11.17;;;9.90;;
2039;SDS011;1025;42.686;23.350;2023-06-22T13:29:46;12.23;;;9.97;;
2039;SDS011;1025;42.686;23.350;2023-06-22T13:32:13;11.37;;;10.37;;
2039;SDS011;1025;42.686;23.350;2023-06-22T13:34:39;19.50;;;12.87;;
2039;SDS011;1025;42.686;23.350;2023-06-22T13:37:06;15.57;;;11.10;;
2039;SDS011;1025;42.686;23.350;2023-06-22T13:39:32;11.47;;;10.30;;
2039;SDS011;1025;42.686;23.350;2023-06-22T13:41:59;9.93;;;9.03;;
2039;SDS011;1025;42.686;23.350;2023-06-22T13:44:25;10.60;;;8.70;;
2039;SDS011;1025;42.686;23.350;2023-06-22T13:46:55;13.00;;;10.63;;
2039;SDS011;1025;42.686;23.350;2023-06-22T13:49:21;13.97;;;11.13;;
2039;SDS011;1025;42.686;23.350;2023-06-22T13:51:48;11.50;;;10.40;;
2039;SDS011;1025;42.686;23.350;2023-06-22T13:54:15;10.80;;;9.70;;
2039;SDS011;1025;42.686;23.350;2023-06-22T13:56:42;25.37;;;12.50;;
2039;SDS011;1025;42.686;23.350;2023-06-22T13:59:08;18.47;;;12.07;;
2039;SDS011;1025;42.686;23.350;2023-06-22T14:01:35;18.87;;;11.50;;
2039;SDS011;1025;42.686;23.350;2023-06-22T14:04:05;18.80;;;12.70;;
2039;SDS011;1025;42.686;23.350;2023-06-22T14:06:32;12.10;;;10.90;;
2039;SDS011;1025;42.686;23.350;2023-06-22T14:08:58;12.30;;;11.20;;
2039;SDS011;1025;42.686;23.350;2023-06-22T14:11:25;12.83;;;11.13;;
2039;SDS011;1025;42.686;23.350;2023-06-22T14:13:51;11.63;;;10.60;;
2039;SDS011;1025;42.686;23.350;2023-06-22T14:16:18;9.93;;;9.20;;
2039;SDS011;1025;42.686;23.350;2023-06-22T14:18:44;10.30;;;9.43;;
2039;SDS011;1025;42.686;23.350;2023-06-22T14:21:12;18.60;;;12.13;;
2039;SDS011;1025;42.686;23.350;2023-06-22T14:23:39;15.23;;;12.40;;
2039;SDS011;1025;42.686;23.350;2023-06-22T14:26:05;15.20;;;10.33;;
2039;SDS011;1025;42.686;23.350;2023-06-22T14:28:32;10.63;;;9.33;;
2039;SDS011;1025;42.686;23.350;2023-06-22T14:30:58;18.33;;;11.63;;
2039;SDS011;1025;42.686;23.350;2023-06-22T14:33:26;13.27;;;10.70;;
2039;SDS011;1025;42.686;23.350;2023-06-22T14:35:52;16.83;;;11.27;;
2039;SDS011;1025;42.686;23.350;2023-06-22T14:38:20;12.10;;;11.00;;
2039;SDS011;1025;42.686;23.350;2023-06-22T14:40:47;13.20;;;11.90;;